createdAt,value
2022-08-25T00:01:59.989Z,8.35
2022-08-25T00:04:29.518Z,8.68
2022-08-25T00:07:02.106Z,7.93
2022-08-25T00:09:31.475Z,8.27
2022-08-25T00:11:58.938Z,7.75
2022-08-25T00:14:33.482Z,7.78
2022-08-25T00:17:01.496Z,8.02
2022-08-25T00:19:32.117Z,7.50
2022-08-25T00:22:00.567Z,7.28
2022-08-25T00:24:28.311Z,8.07
2022-08-25T00:26:56.920Z,7.62
2022-08-25T00:29:26.158Z,8.27
2022-08-25T00:31:54.919Z,7.62
2022-08-25T00:34:25.762Z,7.35
2022-08-25T00:36:53.199Z,6.95
2022-08-25T00:39:21.629Z,6.82
2022-08-25T00:41:49.581Z,7.68
2022-08-25T00:44:19.898Z,7.95
2022-08-25T00:46:49.508Z,8.40
2022-08-25T00:49:32.083Z,6.60
2022-08-25T00:52:13.502Z,7.68
2022-08-25T00:54:46.168Z,7.80
2022-08-25T00:57:15.049Z,8.15
2022-08-25T00:59:43.418Z,7.80
2022-08-25T01:02:13.780Z,7.32
2022-08-25T01:04:48.648Z,7.72
2022-08-25T01:07:18.645Z,7.57
2022-08-25T01:09:46.628Z,8.02
2022-08-25T01:12:14.009Z,7.57
2022-08-25T01:14:41.362Z,7.70
2022-08-25T01:17:09.570Z,7.57
2022-08-25T01:19:37.461Z,6.47
2022-08-25T01:22:05.688Z,7.47
2022-08-25T01:24:50.817Z,6.65
2022-08-25T01:27:18.252Z,7.65
2022-08-25T01:29:45.885Z,7.95
2022-08-25T01:32:14.190Z,6.62
2022-08-25T01:34:43.084Z,7.55
2022-08-25T01:37:13.208Z,7.43
2022-08-25T01:39:41.513Z,9.15
2022-08-25T01:42:24.597Z,7.75
2022-08-25T01:44:52.246Z,7.47
2022-08-25T01:47:19.656Z,8.30
2022-08-25T01:49:47.035Z,7.78
2022-08-25T01:52:33.252Z,7.57
2022-08-25T01:55:00.721Z,8.73
2022-08-25T01:57:30.256Z,7.37
2022-08-25T01:59:58.562Z,6.82
2022-08-25T02:02:26.261Z,8.07
2022-08-25T02:04:53.986Z,7.95
2022-08-25T02:07:22.431Z,6.85
2022-08-25T02:09:49.788Z,8.40
2022-08-25T02:12:17.639Z,7.43
2022-08-25T02:14:45.197Z,7.32
2022-08-25T02:17:12.557Z,8.05
2022-08-25T02:19:40.180Z,7.40
2022-08-25T02:22:07.557Z,7.60
2022-08-25T02:24:35.104Z,8.10
2022-08-25T02:27:04.045Z,7.07
2022-08-25T02:29:31.433Z,7.55
2022-08-25T02:31:58.940Z,8.35
2022-08-25T02:34:26.540Z,8.25
2022-08-25T02:36:53.957Z,7.82
2022-08-25T02:39:21.332Z,6.78
2022-08-25T02:41:48.977Z,7.45
2022-08-25T02:44:16.351Z,7.90
2022-08-25T02:46:43.771Z,7.70
2022-08-25T02:49:11.418Z,8.18
2022-08-25T02:51:38.904Z,7.05
2022-08-25T02:54:07.093Z,7.10
2022-08-25T02:56:35.132Z,7.70
2022-08-25T02:59:02.894Z,7.75
2022-08-25T03:01:31.224Z,8.80
2022-08-25T03:03:59.101Z,8.05
2022-08-25T03:06:27.975Z,8.20
2022-08-25T03:08:55.374Z,8.40
2022-08-25T03:11:24.000Z,7.50
2022-08-25T03:13:51.385Z,7.70
2022-08-25T03:16:18.907Z,8.02
2022-08-25T03:18:46.642Z,7.20
2022-08-25T03:21:14.198Z,8.35
2022-08-25T03:23:43.866Z,7.87
2022-08-25T03:26:30.068Z,7.45
2022-08-25T03:31:26.861Z,8.13
2022-08-25T03:33:54.349Z,7.70
2022-08-25T03:36:21.725Z,8.90
2022-08-25T03:38:49.408Z,8.75
2022-08-25T03:41:29.106Z,9.25
2022-08-25T03:43:56.994Z,8.02
2022-08-25T03:46:26.675Z,8.73
2022-08-25T03:48:54.046Z,8.23
2022-08-25T03:51:25.582Z,9.48
2022-08-25T03:53:53.047Z,8.73
2022-08-25T03:56:20.487Z,8.90
2022-08-25T03:58:48.237Z,9.00
2022-08-25T04:01:15.880Z,7.95
2022-08-25T04:03:46.206Z,9.13
2022-08-25T04:06:13.676Z,8.57
2022-08-25T04:08:41.044Z,8.70
2022-08-25T04:11:13.950Z,8.88
2022-08-25T04:13:42.402Z,9.00
2022-08-25T04:16:12.822Z,8.60
2022-08-25T04:18:43.156Z,9.00
2022-08-25T04:21:10.981Z,8.65
2022-08-25T04:23:40.262Z,8.93
2022-08-25T04:26:12.278Z,7.90
2022-08-25T04:28:39.973Z,7.78
2022-08-25T04:31:11.308Z,8.70
2022-08-25T04:33:38.742Z,7.75
2022-08-25T04:36:11.963Z,9.85
2022-08-25T04:38:40.272Z,9.68
2022-08-25T04:41:08.457Z,10.13
2022-08-25T04:43:35.997Z,9.00
2022-08-25T04:46:11.326Z,9.68
2022-08-25T04:48:40.029Z,9.55
2022-08-25T04:51:08.410Z,9.52
2022-08-25T04:53:36.327Z,8.50
2022-08-25T04:56:08.256Z,8.70
2022-08-25T04:58:36.129Z,8.43
2022-08-25T05:01:08.620Z,9.57
2022-08-25T05:03:36.266Z,8.75
2022-08-25T05:06:04.253Z,8.15
2022-08-25T05:08:32.106Z,7.55
2022-08-25T05:10:59.927Z,7.70
2022-08-25T05:13:30.595Z,9.10
2022-08-25T05:16:00.252Z,9.20
2022-08-25T05:18:29.922Z,7.57
2022-08-25T05:20:59.486Z,7.30
2022-08-25T05:23:26.858Z,7.37
2022-08-25T05:25:54.296Z,8.73
2022-08-25T05:28:21.972Z,8.10
2022-08-25T05:30:50.145Z,9.07
2022-08-25T05:33:18.369Z,8.25
2022-08-25T05:35:46.049Z,8.90
2022-08-25T05:38:15.406Z,7.97
2022-08-25T05:40:43.138Z,8.32
2022-08-25T05:43:10.755Z,7.18
2022-08-25T05:45:39.298Z,7.75
2022-08-25T05:48:06.996Z,9.27
2022-08-25T05:50:34.789Z,8.18
2022-08-25T05:53:02.365Z,7.57
2022-08-25T05:55:29.774Z,8.45
2022-08-25T05:57:57.383Z,8.05
2022-08-25T06:00:24.741Z,7.43
2022-08-25T06:02:52.396Z,7.43
2022-08-25T06:05:21.777Z,8.15
2022-08-25T06:07:50.515Z,8.20
2022-08-25T06:10:19.040Z,7.50
2022-08-25T06:12:46.541Z,7.10
2022-08-25T06:15:17.488Z,7.28
2022-08-25T06:17:45.229Z,7.72
2022-08-25T06:20:16.898Z,8.57
2022-08-25T06:22:44.484Z,9.07
2022-08-25T06:25:13.742Z,7.68
2022-08-25T06:27:41.140Z,7.15
2022-08-25T06:30:10.216Z,7.65
2022-08-25T06:32:39.433Z,7.60
2022-08-25T06:35:08.708Z,7.05
2022-08-25T06:37:36.177Z,7.28
2022-08-25T06:40:04.757Z,7.30
2022-08-25T06:42:32.200Z,7.05
2022-08-25T06:44:59.532Z,8.80
2022-08-25T06:47:27.278Z,7.43
2022-08-25T06:49:54.673Z,6.78
2022-08-25T06:52:22.047Z,7.07
2022-08-25T06:54:56.942Z,6.72
2022-08-25T06:57:24.355Z,6.00
2022-08-25T06:59:53.449Z,7.47
2022-08-25T07:02:21.859Z,7.00
2022-08-25T07:04:49.805Z,7.55
2022-08-25T07:07:17.413Z,7.37
2022-08-25T07:09:45.035Z,6.82
2022-08-25T07:12:12.436Z,6.68
2022-08-25T07:14:40.040Z,7.43
2022-08-25T07:17:23.577Z,6.37
2022-08-25T07:19:53.041Z,6.90
2022-08-25T07:22:25.346Z,6.95
2022-08-25T07:24:52.737Z,7.87
2022-08-25T07:27:20.496Z,6.10
2022-08-25T07:29:50.071Z,7.18
2022-08-25T07:32:17.442Z,6.22
2022-08-25T07:35:03.492Z,11.48
2022-08-25T07:37:47.935Z,7.22
2022-08-25T07:40:17.981Z,7.47
2022-08-25T07:42:45.887Z,6.90
2022-08-25T07:45:13.682Z,8.30
2022-08-25T07:47:43.019Z,7.55
2022-08-25T07:50:12.034Z,7.55
2022-08-25T07:52:40.761Z,7.62
2022-08-25T07:55:11.140Z,6.82
2022-08-25T07:57:42.193Z,6.50
2022-08-25T08:00:11.078Z,7.30
2022-08-25T08:02:39.757Z,6.37
2022-08-25T08:05:09.707Z,6.78
2022-08-25T08:07:43.389Z,6.18
2022-08-25T08:10:42.350Z,7.50
2022-08-25T08:13:00.560Z,7.45
2022-08-25T08:15:29.841Z,7.12
2022-08-25T08:18:00.461Z,7.55
2022-08-25T08:20:28.845Z,7.95
2022-08-25T08:22:56.557Z,7.37
2022-08-25T08:25:26.459Z,7.75
2022-08-25T08:27:55.285Z,8.52
2022-08-25T08:30:26.373Z,8.05
2022-08-25T08:33:11.337Z,8.73
2022-08-25T08:35:42.825Z,8.85
2022-08-25T08:38:16.173Z,8.93
2022-08-25T08:43:37.296Z,9.77
2022-08-25T08:46:07.535Z,10.55
2022-08-25T08:48:40.741Z,11.88
2022-08-25T08:51:23.130Z,11.80
2022-08-25T08:54:01.347Z,10.98
2022-08-25T08:56:30.925Z,11.05
2022-08-25T08:59:05.107Z,11.80
2022-08-25T09:01:36.100Z,11.65
2022-08-25T09:04:14.580Z,11.23
2022-08-25T09:06:48.001Z,11.55
2022-08-25T09:09:30.039Z,10.95
2022-08-25T09:12:07.141Z,10.52
2022-08-25T09:14:54.067Z,13.40
2022-08-25T09:17:30.647Z,14.30
2022-08-25T09:20:34.917Z,14.23
2022-08-25T09:23:27.897Z,14.85
2022-08-25T09:26:04.045Z,12.75
2022-08-25T09:28:40.934Z,13.25
2022-08-25T09:31:26.358Z,14.80
2022-08-25T09:33:57.767Z,13.07
2022-08-25T09:36:25.636Z,13.38
2022-08-25T09:38:53.009Z,12.57
2022-08-25T09:41:42.315Z,13.77
2022-08-25T09:44:24.167Z,13.30
2022-08-25T09:47:17.871Z,14.20
2022-08-25T09:49:47.666Z,14.23
2022-08-25T09:52:34.205Z,14.07
2022-08-25T09:55:22.606Z,13.38
2022-08-25T09:57:56.786Z,14.05
2022-08-25T10:00:33.547Z,14.20
2022-08-25T10:03:18.422Z,13.60
2022-08-25T10:05:58.936Z,12.73
2022-08-25T10:08:39.517Z,12.57
2022-08-25T10:11:10.262Z,13.23
2022-08-25T10:13:40.690Z,13.65
2022-08-25T10:16:24.435Z,13.15
2022-08-25T10:19:02.001Z,13.60
2022-08-25T10:21:29.411Z,13.57
2022-08-25T10:23:57.391Z,13.62
2022-08-25T10:26:44.921Z,14.05
2022-08-25T10:29:40.930Z,12.73
2022-08-25T10:32:42.115Z,13.15
2022-08-25T10:35:13.546Z,14.00
2022-08-25T10:37:58.985Z,14.02
2022-08-25T10:40:38.904Z,13.00
2022-08-25T10:43:12.263Z,13.65
2022-08-25T10:45:47.864Z,13.57
2022-08-25T10:48:18.543Z,13.13
2022-08-25T10:51:34.430Z,14.02
2022-08-25T10:54:25.950Z,14.20
2022-08-25T10:57:08.950Z,14.87
2022-08-25T10:59:53.004Z,14.90
2022-08-25T11:02:36.121Z,15.23
2022-08-25T11:05:12.475Z,14.73
2022-08-25T11:07:45.732Z,14.38
2022-08-25T11:10:19.141Z,14.27
2022-08-25T11:12:57.410Z,15.63
2022-08-25T11:15:29.102Z,14.65
2022-08-25T11:18:14.692Z,15.00
2022-08-25T11:20:44.278Z,13.15
2022-08-25T11:23:19.344Z,15.27
2022-08-25T11:25:56.001Z,15.38
2022-08-25T11:28:39.417Z,15.25
2022-08-25T11:31:08.795Z,14.73
2022-08-25T11:33:36.990Z,15.07
2022-08-25T11:36:29.481Z,14.82
2022-08-25T11:39:21.744Z,16.23
2022-08-25T11:42:01.433Z,16.23
2022-08-25T11:44:53.595Z,16.00
2022-08-25T11:47:39.264Z,15.50
2022-08-25T11:50:32.225Z,14.60
2022-08-25T11:53:23.618Z,16.08
2022-08-25T11:55:56.159Z,14.80
2022-08-25T11:58:49.881Z,14.63
2022-08-25T12:01:40.300Z,14.33
2022-08-25T12:04:33.760Z,14.87
2022-08-25T12:07:15.600Z,14.98
2022-08-25T12:09:49.933Z,13.88
2022-08-25T12:12:32.256Z,15.27
2022-08-25T12:15:46.876Z,13.62
2022-08-25T12:18:22.706Z,15.15
2022-08-25T12:20:53.613Z,14.40
2022-08-25T12:23:45.346Z,14.40
2022-08-25T12:26:23.370Z,15.20
2022-08-25T12:29:08.913Z,13.57
2022-08-25T12:31:47.736Z,14.05
2022-08-25T12:34:36.504Z,15.13
2022-08-25T12:37:06.191Z,13.38
2022-08-25T12:39:35.948Z,14.07
2022-08-25T12:42:05.319Z,14.68
2022-08-25T12:44:44.116Z,12.95
2022-08-25T12:47:25.771Z,13.70
2022-08-25T12:49:54.739Z,12.75
2022-08-25T12:52:27.793Z,12.93
2022-08-25T12:54:57.901Z,13.45
2022-08-25T12:57:29.529Z,14.00
2022-08-25T13:00:00.000Z,12.68
2022-08-25T13:02:51.555Z,13.02
2022-08-25T13:05:41.066Z,13.18
2022-08-25T13:08:27.430Z,13.25
2022-08-25T13:11:20.343Z,13.43
2022-08-25T13:14:15.392Z,13.38
2022-08-25T13:16:58.815Z,12.80
2022-08-25T13:19:27.312Z,13.13
2022-08-25T13:22:13.877Z,12.73
2022-08-25T13:24:45.059Z,13.77
2022-08-25T13:27:24.522Z,12.95
2022-08-25T13:29:55.902Z,12.60
2022-08-25T13:32:34.492Z,12.27
2022-08-25T13:35:20.105Z,12.82
2022-08-25T13:37:48.306Z,13.32
2022-08-25T13:40:26.985Z,12.18
2022-08-25T13:43:03.792Z,12.35
2022-08-25T13:45:41.325Z,12.77
2022-08-25T13:48:21.252Z,12.63
2022-08-25T13:50:51.857Z,12.40
2022-08-25T13:53:25.150Z,12.75
2022-08-25T13:55:54.882Z,12.90
2022-08-25T13:58:44.530Z,12.57
2022-08-25T14:01:25.700Z,12.50
2022-08-25T14:04:40.696Z,11.40
2022-08-25T14:07:22.458Z,11.55
2022-08-25T14:09:51.764Z,13.15
2022-08-25T14:12:44.675Z,11.52
2022-08-25T14:15:19.952Z,12.05
2022-08-25T14:18:04.861Z,11.25
2022-08-25T14:20:33.372Z,11.80
2022-08-25T14:23:07.884Z,11.18
2022-08-25T14:25:40.694Z,11.95
2022-08-25T14:28:13.617Z,11.70
2022-08-25T14:30:52.591Z,12.90
2022-08-25T14:33:23.821Z,11.20
2022-08-25T14:35:53.729Z,11.10
2022-08-25T14:38:21.418Z,10.93
2022-08-25T14:40:50.249Z,11.45
2022-08-25T14:43:18.136Z,12.50
2022-08-25T14:45:51.371Z,12.27
2022-08-25T14:48:28.233Z,13.65
2022-08-25T14:50:56.138Z,11.80
2022-08-25T14:53:24.730Z,11.32
2022-08-25T14:55:58.772Z,11.75
2022-08-25T14:58:27.884Z,11.25
2022-08-25T15:01:01.812Z,11.98
2022-08-25T15:03:32.634Z,12.23
2022-08-25T15:06:00.549Z,11.88
2022-08-25T15:08:47.390Z,11.68
2022-08-25T15:11:15.124Z,12.75
2022-08-25T15:13:49.147Z,11.43
2022-08-25T15:16:45.899Z,11.73
2022-08-25T15:19:15.643Z,11.43
2022-08-25T15:21:44.266Z,11.57
2022-08-25T15:24:11.905Z,12.02
2022-08-25T15:26:44.066Z,12.77
2022-08-25T15:29:12.267Z,12.77
2022-08-25T15:31:39.956Z,12.07
2022-08-25T15:34:11.587Z,12.43
2022-08-25T15:36:39.654Z,11.88
2022-08-25T15:39:09.104Z,12.00
2022-08-25T15:41:37.859Z,12.57
2022-08-25T15:44:06.632Z,12.48
2022-08-25T15:46:35.507Z,12.68
2022-08-25T15:49:02.884Z,13.25
2022-08-25T15:51:30.608Z,12.25
2022-08-25T15:53:58.010Z,13.50
2022-08-25T15:56:26.531Z,12.82
2022-08-25T15:58:55.443Z,12.37
2022-08-25T16:01:24.786Z,12.93
2022-08-25T16:03:53.182Z,12.10
2022-08-25T16:06:20.562Z,12.32
2022-08-25T16:08:48.263Z,12.25
2022-08-25T16:11:24.440Z,12.75
2022-08-25T16:13:52.317Z,12.13
2022-08-25T16:16:21.002Z,13.10
2022-08-25T16:18:48.386Z,11.95
2022-08-25T16:21:19.523Z,11.23
2022-08-25T16:23:48.821Z,11.95
2022-08-25T16:26:16.562Z,11.75
2022-08-25T16:28:45.008Z,11.27
2022-08-25T16:31:13.456Z,10.70
2022-08-25T16:36:10.334Z,11.77
2022-08-25T16:38:38.668Z,11.27
2022-08-25T16:41:09.804Z,10.50
2022-08-25T16:43:37.261Z,10.25
2022-08-25T16:46:08.605Z,10.18
2022-08-25T16:48:38.005Z,11.30
2022-08-25T16:51:14.039Z,11.80
2022-08-25T16:54:00.306Z,11.25
2022-08-25T16:56:29.832Z,11.52
2022-08-25T16:58:59.413Z,10.95
2022-08-25T17:01:27.086Z,10.00
2022-08-25T17:03:56.577Z,9.93
2022-08-25T17:06:25.180Z,10.10
2022-08-25T17:08:52.768Z,10.40
2022-08-25T17:11:22.529Z,10.50
2022-08-25T17:13:52.016Z,9.80
2022-08-25T17:16:21.160Z,10.18
2022-08-25T17:18:48.748Z,10.07
2022-08-25T17:21:24.595Z,9.57
2022-08-25T17:23:53.820Z,10.13
2022-08-25T17:26:27.518Z,9.75
2022-08-25T17:28:59.955Z,10.25
2022-08-25T17:31:27.648Z,10.07
2022-08-25T17:33:55.833Z,9.85
2022-08-25T17:36:27.170Z,10.00
2022-08-25T17:38:57.058Z,9.32
2022-08-25T17:41:25.069Z,8.82
2022-08-25T17:43:52.433Z,8.88
2022-08-25T17:46:21.117Z,8.50
2022-08-25T17:48:48.807Z,9.35
2022-08-25T17:51:16.365Z,9.10
2022-08-25T17:53:43.899Z,8.27
2022-08-25T17:56:16.148Z,9.45
2022-08-25T17:58:44.504Z,9.68
2022-08-25T18:01:17.139Z,8.88
2022-08-25T18:03:44.840Z,8.75
2022-08-25T18:06:15.138Z,7.90
2022-08-25T18:08:43.858Z,7.57
2022-08-25T18:11:11.631Z,8.18
2022-08-25T18:13:39.097Z,7.37
2022-08-25T18:16:07.606Z,8.20
2022-08-25T18:18:37.347Z,7.68
2022-08-25T18:21:05.401Z,7.50
2022-08-25T18:23:34.281Z,8.60
2022-08-25T18:26:02.534Z,7.37
2022-08-25T18:28:30.307Z,8.45
2022-08-25T18:30:57.755Z,7.85
2022-08-25T18:33:25.665Z,7.90
2022-08-25T18:35:57.753Z,8.50
2022-08-25T18:38:44.312Z,7.03
2022-08-25T18:41:13.573Z,7.80
2022-08-25T18:43:42.044Z,6.65
2022-08-25T18:46:09.990Z,7.07
2022-08-25T18:48:37.460Z,7.60
2022-08-25T18:51:06.272Z,8.05
2022-08-25T18:53:37.615Z,8.13
2022-08-25T18:56:18.732Z,7.30
2022-08-25T18:58:47.206Z,7.65
2022-08-25T19:01:18.319Z,7.07
2022-08-25T19:03:46.150Z,7.53
2022-08-25T19:06:13.784Z,8.30
2022-08-25T19:08:41.791Z,8.05
2022-08-25T19:11:10.045Z,8.38
2022-08-25T19:13:38.481Z,7.70
2022-08-25T19:16:17.723Z,7.15
2022-08-25T19:18:48.731Z,6.87
2022-08-25T19:21:17.264Z,7.30
2022-08-25T19:23:50.935Z,8.75
2022-08-25T19:26:19.779Z,7.50
2022-08-25T19:28:48.842Z,7.18
2022-08-25T19:31:18.654Z,7.53
2022-08-25T19:33:48.029Z,7.10
2022-08-25T19:36:15.834Z,7.22
2022-08-25T19:38:44.435Z,6.82
2022-08-25T19:41:14.634Z,7.07
2022-08-25T19:43:54.991Z,6.62
2022-08-25T19:46:35.802Z,7.10
2022-08-25T19:49:07.928Z,6.90
2022-08-25T19:51:44.116Z,7.45
2022-08-25T19:54:17.438Z,7.37
2022-08-25T19:56:54.885Z,6.93
2022-08-25T19:59:25.389Z,7.05
2022-08-25T20:01:54.559Z,6.68
2022-08-25T20:04:24.118Z,7.62
2022-08-25T20:06:55.311Z,7.82
2022-08-25T20:09:38.100Z,6.70
2022-08-25T20:12:09.307Z,7.40
2022-08-25T20:14:37.226Z,6.40
2022-08-25T20:17:14.830Z,7.25
2022-08-25T20:19:54.210Z,7.65
2022-08-25T20:22:25.510Z,7.12
2022-08-25T20:24:58.607Z,7.70
2022-08-25T20:27:31.966Z,7.15
2022-08-25T20:29:59.927Z,7.45
2022-08-25T20:32:32.158Z,6.60
2022-08-25T20:35:00.692Z,7.68
2022-08-25T20:37:28.060Z,6.90
2022-08-25T20:39:55.813Z,7.43
2022-08-25T20:42:23.506Z,6.35
2022-08-25T20:44:51.582Z,7.95
2022-08-25T20:47:21.073Z,6.90
2022-08-25T20:49:49.452Z,6.40
2022-08-25T20:52:18.550Z,7.53
2022-08-25T20:54:50.547Z,6.62
2022-08-25T20:57:25.823Z,7.72
2022-08-25T20:59:54.306Z,7.23
2022-08-25T21:02:23.098Z,6.82
2022-08-25T21:04:50.700Z,7.05
2022-08-25T21:07:18.777Z,6.53
2022-08-25T21:09:46.535Z,7.22
2022-08-25T21:12:14.822Z,7.50
2022-08-25T21:14:42.447Z,6.70
2022-08-25T21:17:13.643Z,8.00
2022-08-25T21:19:41.847Z,7.20
2022-08-25T21:22:10.847Z,6.80
2022-08-25T21:24:38.602Z,6.97
2022-08-25T21:27:06.146Z,6.45
2022-08-25T21:29:34.000Z,6.90
2022-08-25T21:32:01.564Z,6.93
2022-08-25T21:34:29.375Z,6.93
2022-08-25T21:36:57.972Z,7.28
2022-08-25T21:39:31.928Z,6.68
2022-08-25T21:42:00.399Z,6.35
2022-08-25T21:44:28.666Z,6.62
2022-08-25T21:46:56.245Z,6.32
2022-08-25T21:49:24.265Z,6.97
2022-08-25T21:52:00.396Z,6.40
2022-08-25T21:54:28.887Z,6.47
2022-08-25T21:56:59.520Z,6.87
2022-08-25T21:59:35.396Z,7.12
2022-08-25T22:04:31.821Z,6.72
2022-08-25T22:06:59.315Z,7.93
2022-08-25T22:09:28.246Z,7.70
2022-08-25T22:11:56.299Z,6.70
2022-08-25T22:14:24.082Z,6.93
2022-08-25T22:16:54.383Z,6.53
2022-08-25T22:19:22.769Z,7.87
2022-08-25T22:21:50.828Z,7.62
2022-08-25T22:24:18.754Z,6.55
2022-08-25T22:26:48.481Z,6.20
2022-08-25T22:29:25.499Z,6.40
2022-08-25T22:31:59.592Z,6.68
2022-08-25T22:34:34.247Z,6.20
2022-08-25T22:37:03.641Z,7.00
2022-08-25T22:39:31.435Z,6.87
2022-08-25T22:41:59.845Z,6.12
2022-08-25T22:44:27.553Z,7.10
2022-08-25T22:46:55.116Z,6.70
2022-08-25T22:49:22.519Z,5.82
2022-08-25T22:51:50.145Z,6.70
2022-08-25T22:54:18.296Z,6.25
2022-08-25T22:56:45.809Z,5.90
2022-08-25T22:59:13.653Z,7.55
2022-08-25T23:01:41.154Z,7.30
2022-08-25T23:04:08.540Z,6.95
2022-08-25T23:06:38.343Z,6.75
2022-08-25T23:09:06.409Z,7.15
2022-08-25T23:11:33.932Z,7.00
2022-08-25T23:14:02.232Z,6.87
2022-08-25T23:16:31.550Z,6.68
2022-08-25T23:18:59.425Z,6.85
2022-08-25T23:21:46.058Z,6.22
2022-08-25T23:24:14.432Z,6.40
2022-08-25T23:27:01.143Z,6.87
2022-08-25T23:29:29.698Z,6.65
2022-08-25T23:31:58.097Z,6.95
2022-08-25T23:34:25.800Z,6.68
2022-08-25T23:36:53.171Z,6.40
2022-08-25T23:39:21.908Z,6.28
2022-08-25T23:41:50.161Z,6.57
2022-08-25T23:44:18.675Z,6.43
2022-08-25T23:46:47.171Z,7.35
2022-08-25T23:49:18.588Z,6.70
2022-08-25T23:51:47.624Z,6.55
2022-08-25T23:54:16.237Z,6.65
2022-08-25T23:56:52.058Z,8.45
2022-08-25T23:59:24.446Z,6.15
